createdAt,value
2023-01-09T00:01:49.498Z,43.70
2023-01-09T00:04:18.229Z,41.10
2023-01-09T00:06:54.569Z,40.80
2023-01-09T00:09:24.306Z,45.00
2023-01-09T00:11:55.060Z,42.30
2023-01-09T00:14:25.036Z,41.30
2023-01-09T00:16:56.011Z,42.10
2023-01-09T00:19:24.319Z,39.40
2023-01-09T00:21:53.019Z,41.60
2023-01-09T00:24:21.610Z,41.70
2023-01-09T00:26:50.943Z,39.70
2023-01-09T00:29:19.347Z,39.80
2023-01-09T00:31:47.720Z,38.30
2023-01-09T00:34:16.688Z,40.40
2023-01-09T00:36:44.964Z,39.50
2023-01-09T00:39:13.148Z,40.70
2023-01-09T00:41:46.584Z,40.10
2023-01-09T00:44:20.517Z,37.90
2023-01-09T00:46:53.192Z,38.80
2023-01-09T00:49:23.411Z,36.20
2023-01-09T00:51:54.462Z,37.30
2023-01-09T00:54:23.943Z,37.20
2023-01-09T00:56:53.253Z,36.90
2023-01-09T00:59:21.983Z,36.30
2023-01-09T01:01:50.523Z,38.90
2023-01-09T01:04:54.298Z,35.90
2023-01-09T01:07:41.667Z,37.70
2023-01-09T01:10:17.356Z,35.20
2023-01-09T01:12:47.133Z,36.70
2023-01-09T01:15:16.165Z,36.30
2023-01-09T01:17:45.059Z,37.50
2023-01-09T01:20:16.804Z,38.20
2023-01-09T01:22:45.525Z,36.40
2023-01-09T01:25:18.474Z,37.80
2023-01-09T01:27:50.093Z,37.70
2023-01-09T01:30:18.959Z,35.90
2023-01-09T01:32:47.061Z,37.10
2023-01-09T01:35:15.661Z,36.40
2023-01-09T01:37:43.985Z,36.00
2023-01-09T01:40:12.687Z,34.70
2023-01-09T01:42:49.541Z,36.10
2023-01-09T01:45:20.910Z,36.60
2023-01-09T01:47:49.144Z,36.20
2023-01-09T01:50:40.774Z,34.40
2023-01-09T01:53:21.420Z,35.10
2023-01-09T01:56:15.413Z,34.80
2023-01-09T01:58:52.078Z,35.00
2023-01-09T02:01:22.891Z,35.80
2023-01-09T02:03:54.612Z,35.50
2023-01-09T02:06:23.349Z,34.40
2023-01-09T02:08:52.005Z,34.80
2023-01-09T02:11:21.303Z,34.50
2023-01-09T02:13:50.098Z,36.50
2023-01-09T02:16:27.761Z,34.60
2023-01-09T02:19:34.721Z,35.10
2023-01-09T02:22:26.098Z,34.50
2023-01-09T02:25:33.032Z,35.30
2023-01-09T02:28:20.135Z,35.10
2023-01-09T02:31:11.161Z,34.50
2023-01-09T02:34:00.775Z,34.30
2023-01-09T02:36:44.557Z,36.00
2023-01-09T02:39:24.173Z,35.40
2023-01-09T02:42:05.700Z,34.80
2023-01-09T02:44:37.119Z,35.30
2023-01-09T02:47:27.761Z,35.70
2023-01-09T02:50:02.127Z,36.90
2023-01-09T02:53:02.162Z,37.10
2023-01-09T02:55:57.332Z,35.30
2023-01-09T02:59:24.157Z,36.40
2023-01-09T03:02:11.089Z,35.40
2023-01-09T03:05:17.179Z,33.20
2023-01-09T03:08:08.067Z,35.80
2023-01-09T03:10:47.085Z,35.30
2023-01-09T03:13:19.696Z,34.50
2023-01-09T03:15:51.401Z,33.10
2023-01-09T03:18:25.518Z,33.60
2023-01-09T03:20:55.661Z,34.00
2023-01-09T03:23:24.119Z,33.40
2023-01-09T03:25:52.497Z,32.90
2023-01-09T03:28:28.358Z,32.00
2023-01-09T03:31:00.551Z,33.90
2023-01-09T03:33:29.952Z,33.90
2023-01-09T03:35:59.319Z,34.20
2023-01-09T03:38:27.557Z,32.20
2023-01-09T03:40:56.329Z,32.20
2023-01-09T03:43:25.536Z,33.60
2023-01-09T03:45:53.990Z,33.60
2023-01-09T03:48:22.699Z,33.40
2023-01-09T03:50:52.955Z,33.60
2023-01-09T03:53:23.733Z,32.30
2023-01-09T03:55:55.064Z,33.90
2023-01-09T03:58:27.559Z,34.70
2023-01-09T04:01:01.975Z,34.10
2023-01-09T04:03:30.843Z,32.20
2023-01-09T04:05:59.481Z,32.80
2023-01-09T04:08:27.897Z,33.90
2023-01-09T04:10:56.861Z,34.90
2023-01-09T04:13:25.636Z,32.50
2023-01-09T04:15:54.518Z,33.80
2023-01-09T04:18:22.722Z,32.50
2023-01-09T04:20:50.949Z,31.60
2023-01-09T04:23:19.262Z,34.10
2023-01-09T04:25:47.942Z,33.20
2023-01-09T04:28:16.769Z,32.70
2023-01-09T04:30:45.403Z,31.80
2023-01-09T04:33:13.785Z,31.50
2023-01-09T04:35:42.525Z,32.50
2023-01-09T04:38:10.880Z,33.10
2023-01-09T04:40:39.590Z,33.60
2023-01-09T04:43:07.980Z,31.10
2023-01-09T04:45:36.873Z,33.20
2023-01-09T04:48:06.101Z,32.00
2023-01-09T04:50:34.336Z,33.90
2023-01-09T04:53:03.667Z,32.10
2023-01-09T04:55:32.255Z,32.50
2023-01-09T04:58:01.185Z,33.10
2023-01-09T05:00:29.531Z,33.90
2023-01-09T05:02:58.489Z,32.00
2023-01-09T05:05:26.855Z,32.30
2023-01-09T05:07:55.080Z,32.10
2023-01-09T05:10:23.462Z,30.80
2023-01-09T05:12:53.685Z,33.30
2023-01-09T05:15:22.342Z,33.80
2023-01-09T05:17:50.592Z,32.60
2023-01-09T05:20:19.026Z,31.80
2023-01-09T05:22:47.399Z,32.30
2023-01-09T05:25:15.649Z,34.20
2023-01-09T05:27:46.625Z,34.80
2023-01-09T05:30:17.985Z,34.60
2023-01-09T05:32:46.670Z,33.60
2023-01-09T05:35:15.240Z,35.10
2023-01-09T05:37:43.500Z,34.10
2023-01-09T05:40:12.215Z,36.10
2023-01-09T05:42:40.839Z,38.10
2023-01-09T05:45:09.994Z,42.50
2023-01-09T05:47:39.305Z,37.30
2023-01-09T05:50:08.113Z,40.30
2023-01-09T05:52:36.324Z,39.30
2023-01-09T05:55:06.660Z,38.40
2023-01-09T05:57:34.996Z,39.60
2023-01-09T06:00:04.048Z,39.10
2023-01-09T06:02:35.576Z,38.90
2023-01-09T06:05:04.116Z,38.10
2023-01-09T06:07:35.041Z,38.50
2023-01-09T06:10:03.736Z,38.30
2023-01-09T06:12:31.898Z,37.70
2023-01-09T06:15:00.336Z,38.20
2023-01-09T06:17:28.855Z,38.60
2023-01-09T06:19:57.768Z,37.80
2023-01-09T06:22:26.172Z,37.60
2023-01-09T06:24:54.454Z,38.60
2023-01-09T06:27:22.933Z,39.10
2023-01-09T06:29:53.470Z,39.70
2023-01-09T06:32:22.260Z,38.70
2023-01-09T06:34:50.485Z,38.70
2023-01-09T06:37:19.534Z,42.90
2023-01-09T06:39:48.595Z,42.40
2023-01-09T06:42:17.144Z,48.10
2023-01-09T06:44:45.451Z,55.10
2023-01-09T06:47:13.804Z,44.30
2023-01-09T06:49:42.224Z,65.30
2023-01-09T06:52:10.593Z,59.30
2023-01-09T06:54:38.970Z,67.80
2023-01-09T06:57:07.344Z,52.80
2023-01-09T06:59:35.601Z,42.30
2023-01-09T07:02:07.379Z,43.10
2023-01-09T07:04:35.691Z,42.00
2023-01-09T07:07:03.907Z,37.90
2023-01-09T07:09:32.049Z,41.20
2023-01-09T07:12:00.586Z,40.90
2023-01-09T07:14:29.183Z,44.00
2023-01-09T07:16:58.612Z,39.60
2023-01-09T07:19:27.407Z,39.80
2023-01-09T07:21:55.615Z,39.70
2023-01-09T07:24:24.133Z,41.70
2023-01-09T07:26:52.596Z,39.60
